createdAt,value
2023-02-08T00:02:42.580Z,19.90
2023-02-08T00:10:17.935Z,19.15
2023-02-08T00:17:51.776Z,18.23
2023-02-08T00:25:27.047Z,15.52
2023-02-08T00:33:01.511Z,17.48
2023-02-08T00:40:36.892Z,16.38
2023-02-08T00:48:10.752Z,16.55
2023-02-08T00:55:53.019Z,17.10
2023-02-08T01:03:27.467Z,18.60
2023-02-08T01:11:07.602Z,19.00
2023-02-08T01:18:43.183Z,19.48
2023-02-08T01:26:20.914Z,18.05
2023-02-08T01:33:54.884Z,18.08
2023-02-08T01:41:33.311Z,17.92
2023-02-08T01:49:12.337Z,19.05
2023-02-08T02:04:40.317Z,21.17
2023-02-08T02:12:16.100Z,21.10
2023-02-08T02:20:00.969Z,22.55
2023-02-08T02:27:56.558Z,23.65
2023-02-08T02:35:42.539Z,22.17
2023-02-08T02:43:39.876Z,21.65
2023-02-08T02:51:19.899Z,23.45
2023-02-08T02:58:57.312Z,25.17
2023-02-08T03:06:47.055Z,24.35
2023-02-08T03:14:39.797Z,22.42
2023-02-08T03:22:18.405Z,22.27
2023-02-08T03:29:59.564Z,22.45
2023-02-08T03:37:40.721Z,22.55
2023-02-08T03:45:20.180Z,21.80
2023-02-08T03:52:57.566Z,20.90
2023-02-08T04:00:35.441Z,20.77
2023-02-08T04:08:11.065Z,19.88
2023-02-08T04:15:45.274Z,20.83
2023-02-08T04:23:20.555Z,21.02
2023-02-08T04:30:57.427Z,19.98
2023-02-08T04:38:32.639Z,19.75
2023-02-08T04:46:06.786Z,20.08
2023-02-08T04:53:42.204Z,20.20
2023-02-08T05:01:17.519Z,18.85
2023-02-08T05:08:52.803Z,18.35
2023-02-08T05:16:26.974Z,18.77
2023-02-08T05:24:02.208Z,18.10
2023-02-08T05:31:36.603Z,19.25
2023-02-08T05:39:12.106Z,19.02
2023-02-08T05:46:46.382Z,17.60
2023-02-08T05:54:21.708Z,17.60
2023-02-08T06:01:56.652Z,16.13
2023-02-08T06:09:31.848Z,15.73
2023-02-08T06:17:05.727Z,15.27
2023-02-08T06:24:41.028Z,16.55
2023-02-08T06:32:14.962Z,16.25
2023-02-08T06:39:50.312Z,16.30
2023-02-08T06:47:24.757Z,15.40
2023-02-08T06:55:00.009Z,15.40
2023-02-08T07:02:34.238Z,16.17
2023-02-08T07:10:10.165Z,17.55
2023-02-08T07:17:44.274Z,17.48
2023-02-08T07:25:19.805Z,18.55
2023-02-08T07:32:53.710Z,19.77
2023-02-08T07:40:28.958Z,18.83
2023-02-08T07:48:02.775Z,20.38
2023-02-08T07:55:38.096Z,20.58
2023-02-08T08:03:12.419Z,20.88
2023-02-08T08:10:48.165Z,19.20
2023-02-08T08:18:22.083Z,19.50
2023-02-08T08:25:57.425Z,20.92
2023-02-08T08:33:31.241Z,22.27
2023-02-08T08:41:09.877Z,21.17
2023-02-08T08:48:43.859Z,20.73
2023-02-08T08:56:19.138Z,22.90
2023-02-08T09:03:53.565Z,21.73
2023-02-08T09:11:29.033Z,22.52
2023-02-08T09:19:03.228Z,23.02
2023-02-08T09:26:39.380Z,21.48
2023-02-08T09:34:13.438Z,22.75
2023-02-08T09:49:39.311Z,23.88
2023-02-08T09:57:18.139Z,21.15
2023-02-08T10:04:58.908Z,22.05
2023-02-08T10:12:58.763Z,22.70
2023-02-08T10:20:45.125Z,22.85
2023-02-08T10:28:39.481Z,23.67
2023-02-08T10:36:16.245Z,24.23
2023-02-08T10:44:02.642Z,23.23
2023-02-08T10:51:37.225Z,23.70
2023-02-08T10:59:21.092Z,23.58
2023-02-08T11:06:56.076Z,23.77
2023-02-08T11:14:46.165Z,21.42
2023-02-08T11:22:23.225Z,20.70
2023-02-08T11:30:19.286Z,22.80
2023-02-08T11:37:55.750Z,23.10
2023-02-08T11:45:34.454Z,21.92
2023-02-08T11:53:23.432Z,24.10
2023-02-08T12:01:04.670Z,20.67
2023-02-08T12:08:46.640Z,22.63
2023-02-08T12:16:47.186Z,21.90
2023-02-08T12:24:32.155Z,23.00
2023-02-08T12:32:31.077Z,24.10
2023-02-08T12:40:39.871Z,23.65
2023-02-08T12:48:37.184Z,23.70
2023-02-08T12:56:17.030Z,23.85
2023-02-08T13:03:57.704Z,23.85
2023-02-08T13:11:37.461Z,23.15
2023-02-08T13:19:27.922Z,23.17
2023-02-08T13:27:02.411Z,23.45
2023-02-08T13:34:42.049Z,22.80
2023-02-08T13:42:28.797Z,22.77
2023-02-08T13:50:07.810Z,24.42
2023-02-08T13:57:53.181Z,22.67
2023-02-08T14:05:45.988Z,21.55
2023-02-08T14:13:32.306Z,21.70
2023-02-08T14:21:09.448Z,19.92
2023-02-08T14:28:48.835Z,20.30
2023-02-08T14:36:30.205Z,17.92
2023-02-08T14:44:55.611Z,17.38
2023-02-08T14:52:31.331Z,21.00
2023-02-08T15:00:08.816Z,19.65
2023-02-08T15:07:50.703Z,20.45
2023-02-08T15:15:30.270Z,18.85
2023-02-08T15:23:07.684Z,19.85
2023-02-08T15:30:42.802Z,18.65
2023-02-08T15:38:22.258Z,19.55
2023-02-08T15:46:00.288Z,20.13
2023-02-08T15:53:37.195Z,19.13
2023-02-08T16:01:19.907Z,19.48
2023-02-08T16:08:59.767Z,20.05
2023-02-08T16:16:42.159Z,17.65
2023-02-08T16:24:27.191Z,17.45
2023-02-08T16:32:11.168Z,18.95
2023-02-08T16:40:00.368Z,17.88
2023-02-08T16:47:40.038Z,19.23
2023-02-08T16:55:20.718Z,17.48
2023-02-08T17:02:56.131Z,18.35
2023-02-08T17:10:33.513Z,17.90
2023-02-08T17:18:08.450Z,18.85
2023-02-08T17:25:44.140Z,18.15
2023-02-08T17:33:21.250Z,17.90
2023-02-08T17:40:56.546Z,20.30
2023-02-08T17:48:30.388Z,18.75
2023-02-08T17:56:08.276Z,18.15
2023-02-08T18:03:42.059Z,17.83
2023-02-08T18:11:20.210Z,19.38
2023-02-08T18:18:56.675Z,19.17
2023-02-08T18:26:33.548Z,17.95
2023-02-08T18:34:07.350Z,20.52
2023-02-08T18:41:43.381Z,19.55
2023-02-08T18:49:17.766Z,18.73
2023-02-08T18:56:55.834Z,19.85
2023-02-08T19:04:30.648Z,18.38
2023-02-08T19:12:07.543Z,20.15
2023-02-08T19:19:42.231Z,19.02
2023-02-08T19:27:17.391Z,17.55
2023-02-08T19:34:51.253Z,18.17
2023-02-08T19:42:26.500Z,17.58
2023-02-08T19:50:00.293Z,16.23
2023-02-08T19:57:38.420Z,16.38
2023-02-08T20:05:12.255Z,16.20
2023-02-08T20:12:48.002Z,15.68
2023-02-08T20:20:22.612Z,15.63
2023-02-08T20:27:58.264Z,15.68
2023-02-08T20:35:32.261Z,15.32
2023-02-08T20:43:07.517Z,15.32
2023-02-08T20:50:41.502Z,13.90
2023-02-08T20:58:16.865Z,16.52
2023-02-08T21:05:50.709Z,15.07
2023-02-08T21:21:01.617Z,14.52
2023-02-08T21:28:36.979Z,15.40
2023-02-08T21:36:13.746Z,16.02
2023-02-08T21:43:49.604Z,15.48
2023-02-08T21:51:41.849Z,15.63
2023-02-08T21:59:17.235Z,15.43
2023-02-08T22:06:52.079Z,16.38
2023-02-08T22:14:27.401Z,15.80
2023-02-08T22:22:03.415Z,12.60
2023-02-08T22:29:38.895Z,13.85
2023-02-08T22:37:12.973Z,13.02
2023-02-08T22:44:48.208Z,13.88
2023-02-08T22:52:21.990Z,12.38
2023-02-08T23:07:30.861Z,14.77
2023-02-08T23:22:40.082Z,15.00
2023-02-08T23:30:16.060Z,13.82
2023-02-08T23:37:50.087Z,14.23
2023-02-08T23:45:26.227Z,11.63
2023-02-08T23:53:00.128Z,12.10
